Enter the Airport ICAO Code

Search by Airport or City

Current Weather

LEVC | Valencia Airport

Valencia, Valencian Community, Spain

Last Update 34 Minutes Ago

Partly Cloudy Sky

Temperature of 32 ºC

Moderate Winds from East with Gusts

Temperature

32 ºC

Dew Point Temperature

24 ºC

Relative Humidity

62.88 %

Wind Direction

East (110º, Ranging from 070º to 150º)

Wind Velocity

19 km/h (10 kt)

Gusts

48 km/h (26 kt)

Visibility

Greater than 10 Kilometers

Sea Level Pressure

1012 hPa (Hectopascals)

Layers of Clouds

5% to 30% of Sky Covered with Cumulonimbus from 914 mts (3000 ft) Above Ground Level.

30% to 60% of Sky Covered from 1219 mts (4000 ft) Above Ground Level.

METAR LEVC 121400Z 11010G26KT 070V150 9999 FEW030CB SCT040 32/24 Q1012 BECMG NSC

Weather Forecast

LEVC | Valencia Airport

Valencia, Valencian Community, Spain

Forecast valid for the next 21 Hours

From now on it is expected:

Moderate Winds from SouthEast

In 4 to 6 hours it is expected the begining of:

Light to Moderate Winds from Variable Directions

In 13 to 15 hours it is expected the begining of:

Light to Moderate Winds from NorthWest

Maximum Temperature

33 ºC in -2 Hours

Minimum Temperature

22 ºC in 15 Hours

TAF LEVC 121100Z 1212/1312 32010KT 9999 FEW020 TX33/1213Z TN22/1306Z TEMPO 1212/1218 FEW040CB PROB30 TEMPO 1215/1218 4000 TSRA FEW040CB BKN045 BECMG 1212/1213 14010KT BECMG 1219/1221 VRB05KT BECMG 1304/1306 30005KT